Rostein — LLHI — position and weather

sailwx.info

Track history (hours):
 
Tides and Currents Weather Stations Pressure Air Temp Water Temp Dewpoint Dewpoint Depression Visibility Wind Speed Wind Dir Waves Ship Positions

Rostein

Last reported at 2017-Feb-23 20:33 UTC. Time now 2017-Feb-23 20:45 UTC.
Position N 70°53' E 024°20'.

Length 57 m; draft 4 m.

Type: Cargo ship. MMSI: 257210000.

Date/timePositionNaut miles runAvg speedWind from/ knotsBaromVisibWave heightAir tempDewpointWater temp
2017-Feb-23 20:33N 70°53' E 024°20'1211.6
2017-Feb-23 19:33N 70°47' E 023°50'1211.5
2017-Feb-23 18:33N 70°40' E 023°22'1212.3
2017-Feb-23 17:33N 70°31' E 022°57'1212.2
2017-Feb-23 16:33N 70°27' E 022°22'1211.7
2017-Feb-23 15:33N 70°24' E 021°48'1111.3
2017-Feb-23 14:33N 70°17' E 021°22'1211.7
2017-Feb-23 13:32N 70°11' E 020°53'6 6.0
2017-Feb-23 12:33N 70°05' E 020°46'5 4.6
2017-Feb-23 11:33N 70°04' E 020°58'6 6.2
2017-Feb-23 10:32N 69°58' E 020°59'0 0.0
2017-Feb-23 09:33N 69°58' E 020°59'0 0.0
2017-Feb-23 08:33N 69°58' E 020°59'0 0.0
2017-Feb-23 07:33N 69°58' E 020°59'1 1.4
2017-Feb-23 06:32N 69°58' E 021°02'3 2.7
2017-Feb-23 05:33N 70°01' E 021°04'2 1.9
2017-Feb-23 04:33N 70°02' E 020°59'2 2.1
2017-Feb-23 03:32N 70°04' E 020°55'10 9.9
2017-Feb-23 02:33N 70°01' E 020°27'1010.1
2017-Feb-23 01:32N 70°02' E 019°57'9 9.3
2017-Feb-23 00:33N 69°57' E 019°35'5 4.9
2017-Feb-22 23:33N 69°53' E 019°26'0 0.0
2017-Feb-22 22:33N 69°53' E 019°26'0 0.0
2017-Feb-22 21:33N 69°53' E 019°26'3 3.0
2017-Feb-22 20:33N 69°55' E 019°31'8 8.5
2017-Feb-22 19:33N 70°01' E 019°49'1010.1
2017-Feb-22 18:33N 70°02' E 020°18'1111.1
2017-Feb-22 17:33N 70°03' E 020°50'3 3.3
2017-Feb-22 16:33N 70°02' E 020°59'2 2.2
2017-Feb-22 15:33N 70°04' E 021°03'1010.0
2017-Feb-22 14:33N 70°14' E 021°09'1010.0
2017-Feb-22 13:33N 70°20' E 021°32'9 9.1
2017-Feb-22 12:33N 70°25' E 021°55'9 9.5
2017-Feb-22 11:33N 70°27' E 022°22'10 9.5
2017-Feb-22 10:33N 70°30' E 022°50'9 8.9
2017-Feb-22 09:32N 70°36' E 023°11'9 9.0
2017-Feb-22 08:33N 70°42' E 023°30'9 8.9
2017-Feb-22 07:33N 70°47' E 023°53'9 9.0
2017-Feb-22 06:32N 70°52' E 024°16'4 4.1
2017-Feb-22 05:33N 70°50' E 024°27'0 0.0
2017-Feb-22 04:33N 70°50' E 024°27'3 3.3
2017-Feb-22 03:33N 70°53' E 024°24'8 8.0
2017-Feb-22 02:33N 70°48' E 024°04'8 8.4
2017-Feb-22 01:33N 70°46' E 023°40'9 8.7
2017-Feb-22 00:33N 70°39' E 023°21'9 8.9
2017-Feb-21 23:33N 70°33' E 023°03'9 8.9
2017-Feb-21 22:33N 70°28' E 022°40'9 9.3
2017-Feb-21 21:33N 70°26' E 022°13'1111.5
2017-Feb-21 20:33N 70°23' E 021°40'1211.7
2017-Feb-21 19:33N 70°15' E 021°14'1111.2
2017-Feb-21 18:33N 70°09' E 020°48'3 3.2
2017-Feb-21 17:33N 70°05' E 020°46'5 4.6
2017-Feb-21 16:33N 70°04' E 020°58'6 6.3
2017-Feb-21 15:33N 69°58' E 020°59'0 0.0
2017-Feb-21 14:33N 69°58' E 020°59'4 3.8
2017-Feb-21 13:33N 70°01' E 021°04'2 1.8
2017-Feb-21 12:33N 70°02' E 020°59'4 4.0
2017-Feb-21 11:33N 70°03' E 020°48'10 9.9
2017-Feb-21 10:33N 70°01' E 020°19'1010.3
2017-Feb-21 09:33N 70°01' E 019°49'1010.1
2017-Feb-21 08:32N 69°54' E 019°28'1 1.3
2017-Feb-21 07:33N 69°53' E 019°26'0 0.0
2017-Feb-21 06:33N 69°53' E 019°26'0 0.0
2017-Feb-21 05:33N 69°53' E 019°26'3 2.7
2017-Feb-21 04:33N 69°55' E 019°31'6 6.0
2017-Feb-21 03:33N 69°60' E 019°42'6 6.3
2017-Feb-21 02:33N 70°02' E 019°60'10 9.7
2017-Feb-21 01:33N 70°01' E 020°28'7 6.9
2017-Feb-21 00:33N 70°03' E 020°47'8 7.8
2017-Feb-20 23:33N 70°04' E 021°10'1010.0
2017-Feb-20 22:33N 70°03' E 021°39'5 4.7
2017-Feb-20 21:32N 70°04' E 021°53'4 4.3
2017-Feb-20 20:31N 70°00' E 021°45'5 2.7
2017-Feb-20 18:31N 69°56' E 021°36'1 1.1
2017-Feb-20 17:31N 69°55' E 021°35'6 4.5
2017-Feb-20 16:05N 70°00' E 021°46'4 8.4
2017-Feb-20 15:33N 70°04' E 021°53'0 0.2
2017-Feb-20 14:33N 70°04' E 021°52'11 3.6
2017-Feb-20 11:31N 69°55' E 021°36'8 8.8
2017-Feb-20 10:33N 70°02' E 021°24'1111.4
2017-Feb-20 09:33N 70°04' E 020°51'2 2.5
2017-Feb-20 08:33N 70°05' E 020°46'7 7.4
2017-Feb-20 07:32N 70°01' E 021°04'4 4.0
2017-Feb-20 06:32N 69°58' E 020°59'0 0.0
2017-Feb-20 05:33N 69°58' E 020°59'0 0.0
2017-Feb-20 04:33N 69°58' E 020°59'0 0.0
2017-Feb-20 03:33N 69°58' E 020°59'0 0.2
2017-Feb-20 02:33N 69°58' E 020°59'5 4.6
2017-Feb-20 01:33N 70°02' E 020°59'0 0.0
2017-Feb-20 00:32N 70°02' E 020°59'0 0.0
2017-Feb-19 23:33N 70°02' E 020°59'0 0.0
2017-Feb-19 22:33N 70°02' E 020°59'0 0.0
2017-Feb-19 21:33N 70°02' E 020°59'0 0.0
2017-Feb-19 20:33N 70°02' E 020°59'3 3.0
2017-Feb-19 19:33N 70°05' E 021°03'10 9.5
2017-Feb-19 18:32N 70°14' E 021°10'10 9.5
2017-Feb-19 17:33N 70°20' E 021°32'9 9.4
2017-Feb-19 16:32N 70°25' E 021°56'10 9.7
2017-Feb-19 15:33N 70°27' E 022°24'1010.0
2017-Feb-19 14:33N 70°30' E 022°53'10 9.9
2017-Feb-19 13:33N 70°37' E 023°14'10 9.9
2017-Feb-19 12:33N 70°44' E 023°35'10 9.8
2017-Feb-19 11:33N 70°48' E 024°02'9 8.9
2017-Feb-19 10:33N 70°52' E 024°26'2 2.3
2017-Feb-19 09:33N 70°50' E 024°27'0 0.0
2017-Feb-19 08:33N 70°50' E 024°27'0 0.0
2017-Feb-19 07:33N 70°50' E 024°27'4 3.9
2017-Feb-19 06:33N 70°53' E 024°21'8 8.3
2017-Feb-19 05:33N 70°48' E 024°01'8 8.2
2017-Feb-19 04:33N 70°45' E 023°37'8 8.3
2017-Feb-19 03:33N 70°39' E 023°21'8 8.5
2017-Feb-19 02:33N 70°32' E 023°03'8 8.1
2017-Feb-19 01:33N 70°29' E 022°42'8 8.4
2017-Feb-19 00:33N 70°27' E 022°17'1110.8
2017-Feb-18 23:33N 70°24' E 021°46'1110.6
2017-Feb-18 22:33N 70°17' E 021°23'1110.6
2017-Feb-18 21:33N 70°09' E 021°03'1110.6
2017-Feb-18 20:33N 70°02' E 020°40'1111.0
2017-Feb-18 19:33N 69°58' E 020°10'1110.8
2017-Feb-18 18:32N 69°51' E 019°46'1010.1
2017-Feb-18 17:33N 69°47' E 019°18'1010.6
2017-Feb-18 16:33N 69°39' E 018°59'0 0.3
2017-Feb-18 15:33N 69°39' E 018°58'5 5.0
2017-Feb-18 14:33N 69°35' E 018°51'1211.8
2017-Feb-18 13:33N 69°31' E 018°19'1010.5
2017-Feb-18 12:33N 69°35' E 017°52'1010.5
2017-Feb-18 11:34N 69°36' E 017°22'10 9.5
2017-Feb-18 10:33N 69°30' E 016°59'9 8.9
2017-Feb-18 09:33N 69°22' E 016°52'5 5.2
2017-Feb-18 08:33N 69°20' E 017°06'2 2.4
2017-Feb-18 07:33N 69°22' E 017°02'1 0.9
2017-Feb-18 06:33N 69°21' E 017°00'2 2.1
2017-Feb-18 05:33N 69°20' E 017°06'0 0.3
2017-Feb-18 04:33N 69°20' E 017°06'0 0.0
2017-Feb-18 03:33N 69°20' E 017°06'0 0.0
2017-Feb-18 02:33N 69°20' E 017°06'0 0.0
2017-Feb-18 01:33N 69°20' E 017°06'0 0.0
2017-Feb-18 00:34N 69°20' E 017°06'0 0.0
2017-Feb-17 23:33N 69°20' E 017°06'0 0.0
2017-Feb-17 22:33N 69°20' E 017°06'0 0.0
2017-Feb-17 21:33N 69°20' E 017°06'0 0.0
2017-Feb-17 20:33N 69°20' E 017°06'0 0.0
2017-Feb-17 19:33N 69°20' E 017°06'0 0.0
2017-Feb-17 18:34N 69°20' E 017°06'0 0.0
2017-Feb-17 17:33N 69°20' E 017°06'1 0.5
2017-Feb-17 16:33N 69°20' E 017°05'2 2.3
2017-Feb-17 15:33N 69°22' E 017°01'1 0.6
2017-Feb-17 14:33N 69°22' E 017°02'2 2.4
2017-Feb-17 13:33N 69°20' E 017°06'1 0.8
2017-Feb-17 12:33N 69°20' E 017°03'2 2.0
2017-Feb-17 11:33N 69°22' E 017°02'0 0.0
2017-Feb-17 10:33N 69°22' E 017°02'3 3.2
2017-Feb-17 09:33N 69°22' E 016°53'1110.7
2017-Feb-17 08:33N 69°32' E 017°03'1111.4
2017-Feb-17 07:33N 69°38' E 017°31'1110.6
2017-Feb-17 06:33N 69°34' E 017°59'1111.6
2017-Feb-17 05:33N 69°32' E 018°31'1211.9
2017-Feb-17 04:33N 69°39' E 018°59'1211.6
2017-Feb-17 03:33N 69°48' E 019°21'1212.2
2017-Feb-17 02:33N 69°53' E 019°53'1211.8
2017-Feb-17 01:33N 69°60' E 020°21'1211.9
2017-Feb-17 00:33N 70°03' E 020°54'1211.7
2017-Feb-16 23:33N 70°04' E 021°29'8 8.1
2017-Feb-16 22:33N 70°04' E 021°53'9 2.2
2017-Feb-16 18:33N 69°57' E 021°35'1010.1
2017-Feb-16 17:33N 70°01' E 021°08'3 3.1
2017-Feb-16 16:33N 70°02' E 020°59'7 7.1
2017-Feb-16 15:33N 70°09' E 021°05'9 9.4
2017-Feb-16 14:33N 70°17' E 021°20'10 9.7
2017-Feb-16 13:33N 70°24' E 021°41'9 9.5
2017-Feb-16 12:33N 70°26' E 022°08'10 9.9
2017-Feb-16 11:33N 70°29' E 022°37'10 9.6
2017-Feb-16 10:33N 70°33' E 023°03'1010.2
2017-Feb-16 09:33N 70°40' E 023°24'10 9.7
2017-Feb-16 08:32N 70°46' E 023°47'10 9.6
2017-Feb-16 07:33N 70°51' E 024°13'5 4.7
2017-Feb-16 06:33N 70°50' E 024°27'0 0.0
2017-Feb-16 05:33N 70°50' E 024°27'0 0.2
2017-Feb-16 04:33N 70°50' E 024°28'1 1.3
2017-Feb-16 03:33N 70°51' E 024°28'4 3.9
2017-Feb-16 02:33N 70°51' E 024°16'7 6.8
2017-Feb-16 01:32N 70°47' E 023°59'7 6.8
2017-Feb-16 00:33N 70°45' E 023°40'6 6.5
2017-Feb-15 23:33N 70°41' E 023°26'6 6.5
2017-Feb-15 22:33N 70°36' E 023°13'6 6.1
2017-Feb-15 21:33N 70°32' E 022°60'6 6.1
2017-Feb-15 20:33N 70°29' E 022°43'7 7.0
2017-Feb-15 19:33N 70°27' E 022°23'8 7.8
2017-Feb-15 18:33N 70°25' E 022°00'1110.8
2017-Feb-15 17:33N 70°20' E 021°32'1211.9
2017-Feb-15 16:33N 70°11' E 021°08'1211.8
2017-Feb-15 15:32N 69°59' E 021°06'5 5.3
2017-Feb-15 14:33N 70°04' E 020°59'5 4.7
2017-Feb-15 13:33N 70°05' E 020°46'5 4.5
2017-Feb-15 12:33N 70°04' E 020°58'5 5.4
2017-Feb-15 11:33N 69°59' E 021°02'0 0.0
2017-Feb-15 10:33N 69°59' E 021°02'7 6.6
2017-Feb-15 09:33N 70°04' E 020°50'2 2.0
2017-Feb-15 08:32N 70°05' E 020°46'8 7.7
2017-Feb-15 07:33N 70°02' E 021°05'3 3.2
2017-Feb-15 06:33N 69°59' E 021°02'1 1.1
2017-Feb-15 05:33N 69°59' E 021°05'3 2.6
2017-Feb-15 04:32N 70°02' E 021°03'1 1.5
2017-Feb-15 03:33N 70°02' E 020°59'0 0.0
2017-Feb-15 02:33N 70°02' E 020°59'0 0.0
2017-Feb-15 01:33N 70°02' E 020°59'0 0.0
2017-Feb-15 00:33N 70°02' E 020°59'0 0.0
2017-Feb-14 23:32N 70°02' E 020°59'0 0.0
2017-Feb-14 22:33N 70°02' E 020°59'0 0.0
2017-Feb-14 21:33N 70°02' E 020°59'0 0.0
2017-Feb-14 20:33N 70°02' E 020°59'0 0.2
2017-Feb-14 19:33N 70°02' E 020°59'0 0.3
2017-Feb-14 18:33N 70°02' E 021°00'6 5.5
2017-Feb-14 17:33N 70°02' E 020°44'2 2.5
2017-Feb-14 16:33N 69°60' E 020°42'0 0.0
2017-Feb-14 15:33N 69°60' E 020°42'0 0.3
2017-Feb-14 14:32N 69°60' E 020°42'0 0.3
2017-Feb-14 13:33N 69°59' E 020°42'5 5.2
2017-Feb-14 12:33N 69°60' E 020°27'8 8.2
2017-Feb-14 11:33N 69°56' E 020°05'8 7.9
2017-Feb-14 10:33N 69°52' E 019°47'8 7.9
2017-Feb-14 09:33N 69°48' E 019°26'8 8.4
2017-Feb-14 08:33N 69°44' E 019°05'7 6.8
2017-Feb-14 07:33N 69°38' E 018°56'0 0.0
2017-Feb-14 06:33N 69°38' E 018°56'0 0.0
2017-Feb-14 05:33N 69°38' E 018°56'0 0.0
2017-Feb-14 04:33N 69°38' E 018°56'0 0.0
2017-Feb-14 03:33N 69°38' E 018°56'0 0.0
2017-Feb-14 02:33N 69°38' E 018°56'0 0.0
2017-Feb-14 01:33N 69°38' E 018°56'0 0.0
2017-Feb-14 00:33N 69°38' E 018°56'0 0.0
2017-Feb-13 23:33N 69°38' E 018°56'0 0.0
2017-Feb-13 22:33N 69°38' E 018°56'0 0.0
2017-Feb-13 21:33N 69°38' E 018°56'  
Track history (hours):
 
Tides and Currents Weather Stations Pressure Air Temp Water Temp Dewpoint Dewpoint Depression Visibility Wind Speed Wind Dir Waves Ship Positions

Rostein

Last reported at 2017-Feb-23 20:33 UTC. Time now 2017-Feb-23 20:45 UTC.
Position N 70°53' E 024°20'.

Length 57 m; draft 4 m.

Type: Cargo ship. MMSI: 257210000.

Date/timePositionNaut miles runAvg speedWind from/ knotsBaromVisibWave heightAir tempDewpointWater temp
2017-Feb-23 20:33N 70°53' E 024°20'1211.6
2017-Feb-23 19:33N 70°47' E 023°50'1211.5
2017-Feb-23 18:33N 70°40' E 023°22'1212.3
2017-Feb-23 17:33N 70°31' E 022°57'1212.2
2017-Feb-23 16:33N 70°27' E 022°22'1211.7
2017-Feb-23 15:33N 70°24' E 021°48'1111.3
2017-Feb-23 14:33N 70°17' E 021°22'1211.7
2017-Feb-23 13:32N 70°11' E 020°53'6 6.0
2017-Feb-23 12:33N 70°05' E 020°46'5 4.6
2017-Feb-23 11:33N 70°04' E 020°58'6 6.2
2017-Feb-23 10:32N 69°58' E 020°59'0 0.0
2017-Feb-23 09:33N 69°58' E 020°59'0 0.0
2017-Feb-23 08:33N 69°58' E 020°59'0 0.0
2017-Feb-23 07:33N 69°58' E 020°59'1 1.4
2017-Feb-23 06:32N 69°58' E 021°02'3 2.7
2017-Feb-23 05:33N 70°01' E 021°04'2 1.9
2017-Feb-23 04:33N 70°02' E 020°59'2 2.1
2017-Feb-23 03:32N 70°04' E 020°55'10 9.9
2017-Feb-23 02:33N 70°01' E 020°27'1010.1
2017-Feb-23 01:32N 70°02' E 019°57'9 9.3
2017-Feb-23 00:33N 69°57' E 019°35'5 4.9
2017-Feb-22 23:33N 69°53' E 019°26'0 0.0
2017-Feb-22 22:33N 69°53' E 019°26'0 0.0
2017-Feb-22 21:33N 69°53' E 019°26'3 3.0
2017-Feb-22 20:33N 69°55' E 019°31'8 8.5
2017-Feb-22 19:33N 70°01' E 019°49'1010.1
2017-Feb-22 18:33N 70°02' E 020°18'1111.1
2017-Feb-22 17:33N 70°03' E 020°50'3 3.3
2017-Feb-22 16:33N 70°02' E 020°59'2 2.2
2017-Feb-22 15:33N 70°04' E 021°03'1010.0
2017-Feb-22 14:33N 70°14' E 021°09'1010.0
2017-Feb-22 13:33N 70°20' E 021°32'9 9.1
2017-Feb-22 12:33N 70°25' E 021°55'9 9.5
2017-Feb-22 11:33N 70°27' E 022°22'10 9.5
2017-Feb-22 10:33N 70°30' E 022°50'9 8.9
2017-Feb-22 09:32N 70°36' E 023°11'9 9.0
2017-Feb-22 08:33N 70°42' E 023°30'9 8.9
2017-Feb-22 07:33N 70°47' E 023°53'9 9.0
2017-Feb-22 06:32N 70°52' E 024°16'4 4.1
2017-Feb-22 05:33N 70°50' E 024°27'0 0.0
2017-Feb-22 04:33N 70°50' E 024°27'3 3.3
2017-Feb-22 03:33N 70°53' E 024°24'8 8.0
2017-Feb-22 02:33N 70°48' E 024°04'8 8.4
2017-Feb-22 01:33N 70°46' E 023°40'9 8.7
2017-Feb-22 00:33N 70°39' E 023°21'9 8.9
2017-Feb-21 23:33N 70°33' E 023°03'9 8.9
2017-Feb-21 22:33N 70°28' E 022°40'9 9.3
2017-Feb-21 21:33N 70°26' E 022°13'1111.5
2017-Feb-21 20:33N 70°23' E 021°40'1211.7
2017-Feb-21 19:33N 70°15' E 021°14'1111.2
2017-Feb-21 18:33N 70°09' E 020°48'3 3.2
2017-Feb-21 17:33N 70°05' E 020°46'5 4.6
2017-Feb-21 16:33N 70°04' E 020°58'6 6.3
2017-Feb-21 15:33N 69°58' E 020°59'0 0.0
2017-Feb-21 14:33N 69°58' E 020°59'4 3.8
2017-Feb-21 13:33N 70°01' E 021°04'2 1.8
2017-Feb-21 12:33N 70°02' E 020°59'4 4.0
2017-Feb-21 11:33N 70°03' E 020°48'10 9.9
2017-Feb-21 10:33N 70°01' E 020°19'1010.3
2017-Feb-21 09:33N 70°01' E 019°49'1010.1
2017-Feb-21 08:32N 69°54' E 019°28'1 1.3
2017-Feb-21 07:33N 69°53' E 019°26'0 0.0
2017-Feb-21 06:33N 69°53' E 019°26'0 0.0
2017-Feb-21 05:33N 69°53' E 019°26'3 2.7
2017-Feb-21 04:33N 69°55' E 019°31'6 6.0
2017-Feb-21 03:33N 69°60' E 019°42'6 6.3
2017-Feb-21 02:33N 70°02' E 019°60'10 9.7
2017-Feb-21 01:33N 70°01' E 020°28'7 6.9
2017-Feb-21 00:33N 70°03' E 020°47'8 7.8
2017-Feb-20 23:33N 70°04' E 021°10'1010.0
2017-Feb-20 22:33N 70°03' E 021°39'5 4.7
2017-Feb-20 21:32N 70°04' E 021°53'4 4.3
2017-Feb-20 20:31N 70°00' E 021°45'5 2.7
2017-Feb-20 18:31N 69°56' E 021°36'1 1.1
2017-Feb-20 17:31N 69°55' E 021°35'6 4.5
2017-Feb-20 16:05N 70°00' E 021°46'4 8.4
2017-Feb-20 15:33N 70°04' E 021°53'0 0.2
2017-Feb-20 14:33N 70°04' E 021°52'11 3.6
2017-Feb-20 11:31N 69°55' E 021°36'8 8.8
2017-Feb-20 10:33N 70°02' E 021°24'1111.4
2017-Feb-20 09:33N 70°04' E 020°51'2 2.5
2017-Feb-20 08:33N 70°05' E 020°46'7 7.4
2017-Feb-20 07:32N 70°01' E 021°04'4 4.0
2017-Feb-20 06:32N 69°58' E 020°59'0 0.0
2017-Feb-20 05:33N 69°58' E 020°59'0 0.0
2017-Feb-20 04:33N 69°58' E 020°59'0 0.0
2017-Feb-20 03:33N 69°58' E 020°59'0 0.2
2017-Feb-20 02:33N 69°58' E 020°59'5 4.6
2017-Feb-20 01:33N 70°02' E 020°59'0 0.0
2017-Feb-20 00:32N 70°02' E 020°59'0 0.0
2017-Feb-19 23:33N 70°02' E 020°59'0 0.0
2017-Feb-19 22:33N 70°02' E 020°59'0 0.0
2017-Feb-19 21:33N 70°02' E 020°59'0 0.0
2017-Feb-19 20:33N 70°02' E 020°59'3 3.0
2017-Feb-19 19:33N 70°05' E 021°03'10 9.5
2017-Feb-19 18:32N 70°14' E 021°10'10 9.5
2017-Feb-19 17:33N 70°20' E 021°32'9 9.4
2017-Feb-19 16:32N 70°25' E 021°56'10 9.7
2017-Feb-19 15:33N 70°27' E 022°24'1010.0
2017-Feb-19 14:33N 70°30' E 022°53'10 9.9
2017-Feb-19 13:33N 70°37' E 023°14'10 9.9
2017-Feb-19 12:33N 70°44' E 023°35'10 9.8
2017-Feb-19 11:33N 70°48' E 024°02'9 8.9
2017-Feb-19 10:33N 70°52' E 024°26'2 2.3
2017-Feb-19 09:33N 70°50' E 024°27'0 0.0
2017-Feb-19 08:33N 70°50' E 024°27'0 0.0
2017-Feb-19 07:33N 70°50' E 024°27'4 3.9
2017-Feb-19 06:33N 70°53' E 024°21'8 8.3
2017-Feb-19 05:33N 70°48' E 024°01'8 8.2
2017-Feb-19 04:33N 70°45' E 023°37'8 8.3
2017-Feb-19 03:33N 70°39' E 023°21'8 8.5
2017-Feb-19 02:33N 70°32' E 023°03'8 8.1
2017-Feb-19 01:33N 70°29' E 022°42'8 8.4
2017-Feb-19 00:33N 70°27' E 022°17'1110.8
2017-Feb-18 23:33N 70°24' E 021°46'1110.6
2017-Feb-18 22:33N 70°17' E 021°23'1110.6
2017-Feb-18 21:33N 70°09' E 021°03'1110.6
2017-Feb-18 20:33N 70°02' E 020°40'1111.0
2017-Feb-18 19:33N 69°58' E 020°10'1110.8
2017-Feb-18 18:32N 69°51' E 019°46'1010.1
2017-Feb-18 17:33N 69°47' E 019°18'1010.6
2017-Feb-18 16:33N 69°39' E 018°59'0 0.3
2017-Feb-18 15:33N 69°39' E 018°58'5 5.0
2017-Feb-18 14:33N 69°35' E 018°51'1211.8
2017-Feb-18 13:33N 69°31' E 018°19'1010.5
2017-Feb-18 12:33N 69°35' E 017°52'1010.5
2017-Feb-18 11:34N 69°36' E 017°22'10 9.5
2017-Feb-18 10:33N 69°30' E 016°59'9 8.9
2017-Feb-18 09:33N 69°22' E 016°52'5 5.2
2017-Feb-18 08:33N 69°20' E 017°06'2 2.4
2017-Feb-18 07:33N 69°22' E 017°02'1 0.9
2017-Feb-18 06:33N 69°21' E 017°00'2 2.1
2017-Feb-18 05:33N 69°20' E 017°06'0 0.3
2017-Feb-18 04:33N 69°20' E 017°06'0 0.0
2017-Feb-18 03:33N 69°20' E 017°06'0 0.0
2017-Feb-18 02:33N 69°20' E 017°06'0 0.0
2017-Feb-18 01:33N 69°20' E 017°06'0 0.0
2017-Feb-18 00:34N 69°20' E 017°06'0 0.0
2017-Feb-17 23:33N 69°20' E 017°06'0 0.0
2017-Feb-17 22:33N 69°20' E 017°06'0 0.0
2017-Feb-17 21:33N 69°20' E 017°06'0 0.0
2017-Feb-17 20:33N 69°20' E 017°06'0 0.0
2017-Feb-17 19:33N 69°20' E 017°06'0 0.0
2017-Feb-17 18:34N 69°20' E 017°06'0 0.0
2017-Feb-17 17:33N 69°20' E 017°06'1 0.5
2017-Feb-17 16:33N 69°20' E 017°05'2 2.3
2017-Feb-17 15:33N 69°22' E 017°01'1 0.6
2017-Feb-17 14:33N 69°22' E 017°02'2 2.4
2017-Feb-17 13:33N 69°20' E 017°06'1 0.8
2017-Feb-17 12:33N 69°20' E 017°03'2 2.0
2017-Feb-17 11:33N 69°22' E 017°02'0 0.0
2017-Feb-17 10:33N 69°22' E 017°02'3 3.2
2017-Feb-17 09:33N 69°22' E 016°53'1110.7
2017-Feb-17 08:33N 69°32' E 017°03'1111.4
2017-Feb-17 07:33N 69°38' E 017°31'1110.6
2017-Feb-17 06:33N 69°34' E 017°59'1111.6
2017-Feb-17 05:33N 69°32' E 018°31'1211.9
2017-Feb-17 04:33N 69°39' E 018°59'1211.6
2017-Feb-17 03:33N 69°48' E 019°21'1212.2
2017-Feb-17 02:33N 69°53' E 019°53'1211.8
2017-Feb-17 01:33N 69°60' E 020°21'1211.9
2017-Feb-17 00:33N 70°03' E 020°54'1211.7
2017-Feb-16 23:33N 70°04' E 021°29'8 8.1
2017-Feb-16 22:33N 70°04' E 021°53'9 2.2
2017-Feb-16 18:33N 69°57' E 021°35'1010.1
2017-Feb-16 17:33N 70°01' E 021°08'3 3.1
2017-Feb-16 16:33N 70°02' E 020°59'7 7.1
2017-Feb-16 15:33N 70°09' E 021°05'9 9.4
2017-Feb-16 14:33N 70°17' E 021°20'10 9.7
2017-Feb-16 13:33N 70°24' E 021°41'9 9.5
2017-Feb-16 12:33N 70°26' E 022°08'10 9.9
2017-Feb-16 11:33N 70°29' E 022°37'10 9.6
2017-Feb-16 10:33N 70°33' E 023°03'1010.2
2017-Feb-16 09:33N 70°40' E 023°24'10 9.7
2017-Feb-16 08:32N 70°46' E 023°47'10 9.6
2017-Feb-16 07:33N 70°51' E 024°13'5 4.7
2017-Feb-16 06:33N 70°50' E 024°27'0 0.0
2017-Feb-16 05:33N 70°50' E 024°27'0 0.2
2017-Feb-16 04:33N 70°50' E 024°28'1 1.3
2017-Feb-16 03:33N 70°51' E 024°28'4 3.9
2017-Feb-16 02:33N 70°51' E 024°16'7 6.8
2017-Feb-16 01:32N 70°47' E 023°59'7 6.8
2017-Feb-16 00:33N 70°45' E 023°40'6 6.5
2017-Feb-15 23:33N 70°41' E 023°26'6 6.5
2017-Feb-15 22:33N 70°36' E 023°13'6 6.1
2017-Feb-15 21:33N 70°32' E 022°60'6 6.1
2017-Feb-15 20:33N 70°29' E 022°43'7 7.0
2017-Feb-15 19:33N 70°27' E 022°23'8 7.8
2017-Feb-15 18:33N 70°25' E 022°00'1110.8
2017-Feb-15 17:33N 70°20' E 021°32'1211.9
2017-Feb-15 16:33N 70°11' E 021°08'1211.8
2017-Feb-15 15:32N 69°59' E 021°06'5 5.3
2017-Feb-15 14:33N 70°04' E 020°59'5 4.7
2017-Feb-15 13:33N 70°05' E 020°46'5 4.5
2017-Feb-15 12:33N 70°04' E 020°58'5 5.4
2017-Feb-15 11:33N 69°59' E 021°02'0 0.0
2017-Feb-15 10:33N 69°59' E 021°02'7 6.6
2017-Feb-15 09:33N 70°04' E 020°50'2 2.0
2017-Feb-15 08:32N 70°05' E 020°46'8 7.7
2017-Feb-15 07:33N 70°02' E 021°05'3 3.2
2017-Feb-15 06:33N 69°59' E 021°02'1 1.1
2017-Feb-15 05:33N 69°59' E 021°05'3 2.6
2017-Feb-15 04:32N 70°02' E 021°03'1 1.5
2017-Feb-15 03:33N 70°02' E 020°59'0 0.0
2017-Feb-15 02:33N 70°02' E 020°59'0 0.0
2017-Feb-15 01:33N 70°02' E 020°59'0 0.0
2017-Feb-15 00:33N 70°02' E 020°59'0 0.0
2017-Feb-14 23:32N 70°02' E 020°59'0 0.0
2017-Feb-14 22:33N 70°02' E 020°59'0 0.0
2017-Feb-14 21:33N 70°02' E 020°59'0 0.0
2017-Feb-14 20:33N 70°02' E 020°59'0 0.2
2017-Feb-14 19:33N 70°02' E 020°59'0 0.3
2017-Feb-14 18:33N 70°02' E 021°00'6 5.5
2017-Feb-14 17:33N 70°02' E 020°44'2 2.5
2017-Feb-14 16:33N 69°60' E 020°42'0 0.0
2017-Feb-14 15:33N 69°60' E 020°42'0 0.3
2017-Feb-14 14:32N 69°60' E 020°42'0 0.3
2017-Feb-14 13:33N 69°59' E 020°42'5 5.2
2017-Feb-14 12:33N 69°60' E 020°27'8 8.2
2017-Feb-14 11:33N 69°56' E 020°05'8 7.9
2017-Feb-14 10:33N 69°52' E 019°47'8 7.9
2017-Feb-14 09:33N 69°48' E 019°26'8 8.4
2017-Feb-14 08:33N 69°44' E 019°05'7 6.8
2017-Feb-14 07:33N 69°38' E 018°56'0 0.0
2017-Feb-14 06:33N 69°38' E 018°56'0 0.0
2017-Feb-14 05:33N 69°38' E 018°56'0 0.0
2017-Feb-14 04:33N 69°38' E 018°56'0 0.0
2017-Feb-14 03:33N 69°38' E 018°56'0 0.0
2017-Feb-14 02:33N 69°38' E 018°56'0 0.0
2017-Feb-14 01:33N 69°38' E 018°56'0 0.0
2017-Feb-14 00:33N 69°38' E 018°56'0 0.0
2017-Feb-13 23:33N 69°38' E 018°56'0 0.0
2017-Feb-13 22:33N 69°38' E 018°56'0 0.0
2017-Feb-13 21:33N 69°38' E 018°56'  

Dump ship's entire track history